sensor_id;sensor_type;location;lat;lon;timestamp;P1;durP1;ratioP1;P2;durP2;ratioP2
31836;SDS011;18401;49.344;6.240;2024-03-23T00:55:59;27.45;;;13.43;;
31836;SDS011;18401;49.344;6.240;2024-03-23T00:58:24;25.52;;;11.70;;
31836;SDS011;18401;49.344;6.240;2024-03-23T01:00:50;25.42;;;11.75;;
31836;SDS011;18401;49.344;6.240;2024-03-23T01:03:16;26.38;;;12.23;;
31836;SDS011;18401;49.344;6.240;2024-03-23T01:05:41;21.38;;;10.65;;
31836;SDS011;18401;49.344;6.240;2024-03-23T01:08:07;25.92;;;11.07;;
31836;SDS011;18401;49.344;6.240;2024-03-23T01:10:33;23.70;;;11.15;;
31836;SDS011;18401;49.344;6.240;2024-03-23T01:12:58;24.02;;;11.23;;
31836;SDS011;18401;49.344;6.240;2024-03-23T01:15:24;25.40;;;10.32;;
31836;SDS011;18401;49.344;6.240;2024-03-23T01:17:49;20.70;;;10.88;;
31836;SDS011;18401;49.344;6.240;2024-03-23T01:20:15;21.40;;;10.18;;
31836;SDS011;18401;49.344;6.240;2024-03-23T01:22:41;23.77;;;11.20;;
31836;SDS011;18401;49.344;6.240;2024-03-23T01:25:07;21.35;;;10.55;;
31836;SDS011;18401;49.344;6.240;2024-03-23T01:27:33;17.30;;;8.85;;
31836;SDS011;18401;49.344;6.240;2024-03-23T01:29:59;20.73;;;9.95;;
31836;SDS011;18401;49.344;6.240;2024-03-23T01:32:25;21.13;;;10.30;;
31836;SDS011;18401;49.344;6.240;2024-03-23T01:34:50;24.42;;;12.05;;
31836;SDS011;18401;49.344;6.240;2024-03-23T01:37:16;23.75;;;10.88;;
31836;SDS011;18401;49.344;6.240;2024-03-23T01:39:41;27.27;;;11.95;;
31836;SDS011;18401;49.344;6.240;2024-03-23T01:42:07;23.55;;;10.55;;
31836;SDS011;18401;49.344;6.240;2024-03-23T01:44:33;23.85;;;11.15;;
31836;SDS011;18401;49.344;6.240;2024-03-23T01:46:58;18.75;;;10.35;;
31836;SDS011;18401;49.344;6.240;2024-03-23T01:49:24;17.83;;;8.18;;
31836;SDS011;18401;49.344;6.240;2024-03-23T01:51:50;12.75;;;6.90;;
31836;SDS011;18401;49.344;6.240;2024-03-23T01:54:15;8.43;;;4.85;;
31836;SDS011;18401;49.344;6.240;2024-03-23T01:56:41;7.05;;;3.83;;
31836;SDS011;18401;49.344;6.240;2024-03-23T01:59:07;5.13;;;2.72;;
31836;SDS011;18401;49.344;6.240;2024-03-23T02:01:34;5.40;;;2.78;;
31836;SDS011;18401;49.344;6.240;2024-03-23T02:04:03;3.33;;;2.00;;
31836;SDS011;18401;49.344;6.240;2024-03-23T02:06:29;2.35;;;1.77;;
31836;SDS011;18401;49.344;6.240;2024-03-23T02:08:55;3.55;;;1.30;;
31836;SDS011;18401;49.344;6.240;2024-03-23T02:11:21;1.15;;;0.90;;
31836;SDS011;18401;49.344;6.240;2024-03-23T02:13:47;0.93;;;0.75;;
31836;SDS011;18401;49.344;6.240;2024-03-23T02:16:12;0.68;;;0.68;;
31836;SDS011;18401;49.344;6.240;2024-03-23T02:18:38;1.00;;;0.68;;
31836;SDS011;18401;49.344;6.240;2024-03-23T02:21:04;0.70;;;0.70;;
31836;SDS011;18401;49.344;6.240;2024-03-23T02:23:30;1.05;;;0.80;;
31836;SDS011;18401;49.344;6.240;2024-03-23T02:25:56;1.27;;;1.05;;
31836;SDS011;18401;49.344;6.240;2024-03-23T02:28:21;2.30;;;0.85;;
31836;SDS011;18401;49.344;6.240;2024-03-23T02:30:50;0.60;;;0.60;;
31836;SDS011;18401;49.344;6.240;2024-03-23T02:33:16;0.57;;;0.55;;
31836;SDS011;18401;49.344;6.240;2024-03-23T02:35:43;0.52;;;0.52;;
31836;SDS011;18401;49.344;6.240;2024-03-23T02:38:08;0.30;;;0.30;;
31836;SDS011;18401;49.344;6.240;2024-03-23T02:40:34;0.38;;;0.38;;
31836;SDS011;18401;49.344;6.240;2024-03-23T02:43:02;0.35;;;0.35;;
31836;SDS011;18401;49.344;6.240;2024-03-23T02:45:28;0.38;;;0.38;;
31836;SDS011;18401;49.344;6.240;2024-03-23T02:47:53;0.90;;;0.47;;
31836;SDS011;18401;49.344;6.240;2024-03-23T02:50:19;0.32;;;0.32;;
31836;SDS011;18401;49.344;6.240;2024-03-23T02:52:45;0.30;;;0.30;;
31836;SDS011;18401;49.344;6.240;2024-03-23T02:55:11;0.50;;;0.50;;
31836;SDS011;18401;49.344;6.240;2024-03-23T02:57:37;0.60;;;0.60;;
31836;SDS011;18401;49.344;6.240;2024-03-23T03:00:03;0.60;;;0.60;;
31836;SDS011;18401;49.344;6.240;2024-03-23T03:02:30;0.50;;;0.50;;
31836;SDS011;18401;49.344;6.240;2024-03-23T03:04:56;0.60;;;0.60;;
31836;SDS011;18401;49.344;6.240;2024-03-23T03:07:21;0.63;;;0.60;;
31836;SDS011;18401;49.344;6.240;2024-03-23T03:09:47;0.88;;;0.85;;
31836;SDS011;18401;49.344;6.240;2024-03-23T03:12:12;0.88;;;0.70;;
31836;SDS011;18401;49.344;6.240;2024-03-23T03:14:38;2.50;;;1.10;;
31836;SDS011;18401;49.344;6.240;2024-03-23T03:17:04;2.15;;;0.88;;
31836;SDS011;18401;49.344;6.240;2024-03-23T03:19:29;0.80;;;0.80;;
31836;SDS011;18401;49.344;6.240;2024-03-23T03:21:55;1.10;;;1.00;;
31836;SDS011;18401;49.344;6.240;2024-03-23T03:24:21;0.80;;;0.80;;
31836;SDS011;18401;49.344;6.240;2024-03-23T03:26:47;1.00;;;1.00;;
31836;SDS011;18401;49.344;6.240;2024-03-23T03:29:12;1.00;;;1.00;;
31836;SDS011;18401;49.344;6.240;2024-03-23T03:31:41;1.00;;;1.00;;
31836;SDS011;18401;49.344;6.240;2024-03-23T03:34:08;2.33;;;1.10;;
31836;SDS011;18401;49.344;6.240;2024-03-23T03:36:33;1.27;;;1.00;;
31836;SDS011;18401;49.344;6.240;2024-03-23T03:38:59;3.53;;;1.13;;
31836;SDS011;18401;49.344;6.240;2024-03-23T03:41:25;1.00;;;1.00;;
31836;SDS011;18401;49.344;6.240;2024-03-23T03:43:50;1.02;;;1.00;;
31836;SDS011;18401;49.344;6.240;2024-03-23T03:46:16;1.05;;;1.05;;
31836;SDS011;18401;49.344;6.240;2024-03-23T03:48:42;2.08;;;1.08;;
31836;SDS011;18401;49.344;6.240;2024-03-23T03:51:11;1.55;;;1.40;;
31836;SDS011;18401;49.344;6.240;2024-03-23T03:53:37;1.92;;;1.17;;
31836;SDS011;18401;49.344;6.240;2024-03-23T03:56:02;1.20;;;1.10;;
31836;SDS011;18401;49.344;6.240;2024-03-23T03:58:28;1.75;;;1.08;;
31836;SDS011;18401;49.344;6.240;2024-03-23T04:00:54;0.80;;;0.80;;
31836;SDS011;18401;49.344;6.240;2024-03-23T04:03:19;1.45;;;1.27;;
31836;SDS011;18401;49.344;6.240;2024-03-23T04:05:54;3.70;;;1.17;;
31836;SDS011;18401;49.344;6.240;2024-03-23T04:08:20;1.05;;;1.05;;
31836;SDS011;18401;49.344;6.240;2024-03-23T04:10:46;1.35;;;1.20;;
31836;SDS011;18401;49.344;6.240;2024-03-23T04:13:12;3.17;;;1.20;;
31836;SDS011;18401;49.344;6.240;2024-03-23T04:15:38;1.30;;;1.20;;
31836;SDS011;18401;49.344;6.240;2024-03-23T04:18:04;0.90;;;0.90;;
31836;SDS011;18401;49.344;6.240;2024-03-23T04:20:30;1.00;;;1.00;;
31836;SDS011;18401;49.344;6.240;2024-03-23T04:22:57;0.70;;;0.70;;
31836;SDS011;18401;49.344;6.240;2024-03-23T04:25:23;0.70;;;0.70;;
31836;SDS011;18401;49.344;6.240;2024-03-23T04:27:49;0.63;;;0.63;;
31836;SDS011;18401;49.344;6.240;2024-03-23T04:30:15;0.85;;;0.85;;
31836;SDS011;18401;49.344;6.240;2024-03-23T04:32:41;1.13;;;1.02;;
31836;SDS011;18401;49.344;6.240;2024-03-23T04:35:07;1.35;;;0.80;;
31836;SDS011;18401;49.344;6.240;2024-03-23T04:37:36;1.88;;;1.25;;
31836;SDS011;18401;49.344;6.240;2024-03-23T04:40:02;1.80;;;1.23;;
31836;SDS011;18401;49.344;6.240;2024-03-23T04:42:28;3.83;;;2.00;;
31836;SDS011;18401;49.344;6.240;2024-03-23T04:44:54;5.13;;;2.25;;
31836;SDS011;18401;49.344;6.240;2024-03-23T04:47:20;3.20;;;1.63;;
31836;SDS011;18401;49.344;6.240;2024-03-23T04:49:45;4.88;;;2.15;;
31836;SDS011;18401;49.344;6.240;2024-03-23T04:52:11;5.82;;;1.92;;
31836;SDS011;18401;49.344;6.240;2024-03-23T04:54:37;4.55;;;1.75;;
31836;SDS011;18401;49.344;6.240;2024-03-23T04:57:05;6.38;;;3.42;;
31836;SDS011;18401;49.344;6.240;2024-03-23T04:59:31;5.10;;;2.85;;
31836;SDS011;18401;49.344;6.240;2024-03-23T05:01:56;6.13;;;2.40;;
31836;SDS011;18401;49.344;6.240;2024-03-23T05:04:22;8.75;;;2.70;;
31836;SDS011;18401;49.344;6.240;2024-03-23T05:06:48;6.15;;;2.80;;
31836;SDS011;18401;49.344;6.240;2024-03-23T05:09:14;7.93;;;2.92;;
31836;SDS011;18401;49.344;6.240;2024-03-23T05:11:39;9.57;;;3.75;;
31836;SDS011;18401;49.344;6.240;2024-03-23T05:14:06;5.28;;;2.55;;
31836;SDS011;18401;49.344;6.240;2024-03-23T05:16:32;8.52;;;3.40;;
31836;SDS011;18401;49.344;6.240;2024-03-23T05:18:58;7.10;;;3.50;;
31836;SDS011;18401;49.344;6.240;2024-03-23T05:21:24;11.18;;;4.10;;
31836;SDS011;18401;49.344;6.240;2024-03-23T05:23:49;11.13;;;4.75;;
31836;SDS011;18401;49.344;6.240;2024-03-23T05:26:16;17.20;;;4.95;;
31836;SDS011;18401;49.344;6.240;2024-03-23T05:28:42;13.95;;;4.88;;
31836;SDS011;18401;49.344;6.240;2024-03-23T05:31:08;11.40;;;4.55;;
31836;SDS011;18401;49.344;6.240;2024-03-23T05:33:35;21.02;;;4.65;;
31836;SDS011;18401;49.344;6.240;2024-03-23T05:36:03;13.27;;;4.45;;
31836;SDS011;18401;49.344;6.240;2024-03-23T05:38:29;10.55;;;4.88;;
31836;SDS011;18401;49.344;6.240;2024-03-23T05:40:55;18.63;;;5.18;;
31836;SDS011;18401;49.344;6.240;2024-03-23T05:43:21;12.68;;;4.82;;
31836;SDS011;18401;49.344;6.240;2024-03-23T05:45:53;8.18;;;4.70;;
31836;SDS011;18401;49.344;6.240;2024-03-23T05:48:19;6.95;;;4.40;;
31836;SDS011;18401;49.344;6.240;2024-03-23T05:50:44;13.32;;;4.97;;
31836;SDS011;18401;49.344;6.240;2024-03-23T05:53:10;10.75;;;5.10;;
31836;SDS011;18401;49.344;6.240;2024-03-23T05:55:37;9.18;;;4.32;;
31836;SDS011;18401;49.344;6.240;2024-03-23T05:58:03;7.85;;;4.40;;
31836;SDS011;18401;49.344;6.240;2024-03-23T06:00:29;13.55;;;5.03;;
31836;SDS011;18401;49.344;6.240;2024-03-23T06:02:54;16.67;;;4.93;;
31836;SDS011;18401;49.344;6.240;2024-03-23T06:05:20;10.98;;;4.82;;
31836;SDS011;18401;49.344;6.240;2024-03-23T06:07:46;11.10;;;4.57;;
31836;SDS011;18401;49.344;6.240;2024-03-23T06:10:11;12.70;;;4.47;;
31836;SDS011;18401;49.344;6.240;2024-03-23T06:12:37;11.05;;;4.43;;
31836;SDS011;18401;49.344;6.240;2024-03-23T06:15:03;14.27;;;4.80;;
31836;SDS011;18401;49.344;6.240;2024-03-23T06:17:28;12.80;;;5.10;;
31836;SDS011;18401;49.344;6.240;2024-03-23T06:19:54;14.13;;;4.95;;
31836;SDS011;18401;49.344;6.240;2024-03-23T06:22:20;8.65;;;4.63;;
31836;SDS011;18401;49.344;6.240;2024-03-23T06:24:45;18.55;;;6.18;;
31836;SDS011;18401;49.344;6.240;2024-03-23T06:27:11;9.63;;;4.82;;
31836;SDS011;18401;49.344;6.240;2024-03-23T06:29:37;18.60;;;5.28;;
31836;SDS011;18401;49.344;6.240;2024-03-23T06:32:03;8.23;;;5.20;;
31836;SDS011;18401;49.344;6.240;2024-03-23T06:34:28;12.18;;;5.00;;
31836;SDS011;18401;49.344;6.240;2024-03-23T06:36:55;16.63;;;5.05;;
31836;SDS011;18401;49.344;6.240;2024-03-23T06:39:20;20.02;;;6.00;;
31836;SDS011;18401;49.344;6.240;2024-03-23T06:41:51;19.85;;;6.38;;
31836;SDS011;18401;49.344;6.240;2024-03-23T06:44:18;26.85;;;6.43;;
31836;SDS011;18401;49.344;6.240;2024-03-23T06:46:44;14.18;;;5.38;;
31836;SDS011;18401;49.344;6.240;2024-03-23T06:49:10;15.25;;;7.03;;
31836;SDS011;18401;49.344;6.240;2024-03-23T06:51:36;20.92;;;7.63;;
31836;SDS011;18401;49.344;6.240;2024-03-23T06:54:03;13.02;;;6.50;;
31836;SDS011;18401;49.344;6.240;2024-03-23T06:56:29;20.67;;;6.85;;
31836;SDS011;18401;49.344;6.240;2024-03-23T06:58:55;15.30;;;4.93;;
31836;SDS011;18401;49.344;6.240;2024-03-23T07:01:21;8.27;;;4.30;;
31836;SDS011;18401;49.344;6.240;2024-03-23T07:03:48;6.53;;;3.80;;
31836;SDS011;18401;49.344;6.240;2024-03-23T07:06:14;11.68;;;4.60;;
31836;SDS011;18401;49.344;6.240;2024-03-23T07:08:39;8.85;;;3.58;;
31836;SDS011;18401;49.344;6.240;2024-03-23T07:11:05;9.05;;;3.50;;
31836;SDS011;18401;49.344;6.240;2024-03-23T07:13:31;11.27;;;4.50;;
31836;SDS011;18401;49.344;6.240;2024-03-23T07:15:56;10.38;;;3.40;;
31836;SDS011;18401;49.344;6.240;2024-03-23T07:18:25;10.38;;;4.10;;
31836;SDS011;18401;49.344;6.240;2024-03-23T07:20:57;13.55;;;4.15;;
31836;SDS011;18401;49.344;6.240;2024-03-23T07:23:23;11.00;;;4.03;;
31836;SDS011;18401;49.344;6.240;2024-03-23T07:25:56;8.57;;;2.92;;
31836;SDS011;18401;49.344;6.240;2024-03-23T07:28:31;8.70;;;3.15;;
31836;SDS011;18401;49.344;6.240;2024-03-23T07:31:04;5.60;;;3.10;;
31836;SDS011;18401;49.344;6.240;2024-03-23T07:33:29;5.80;;;2.80;;
31836;SDS011;18401;49.344;6.240;2024-03-23T07:35:55;6.20;;;3.35;;
31836;SDS011;18401;49.344;6.240;2024-03-23T07:38:21;9.88;;;3.47;;
31836;SDS011;18401;49.344;6.240;2024-03-23T07:40:47;8.98;;;3.30;;
31836;SDS011;18401;49.344;6.240;2024-03-23T07:43:15;3.85;;;2.38;;
31836;SDS011;18401;49.344;6.240;2024-03-23T07:45:40;4.43;;;2.58;;
31836;SDS011;18401;49.344;6.240;2024-03-23T07:48:06;5.32;;;2.65;;
31836;SDS011;18401;49.344;6.240;2024-03-23T07:50:32;5.70;;;2.65;;
31836;SDS011;18401;49.344;6.240;2024-03-23T07:52:57;8.95;;;3.10;;
31836;SDS011;18401;49.344;6.240;2024-03-23T07:55:23;8.82;;;2.72;;
31836;SDS011;18401;49.344;6.240;2024-03-23T07:57:50;13.05;;;5.30;;
31836;SDS011;18401;49.344;6.240;2024-03-23T08:00:16;9.98;;;3.85;;
31836;SDS011;18401;49.344;6.240;2024-03-23T08:02:42;12.68;;;3.55;;
31836;SDS011;18401;49.344;6.240;2024-03-23T08:05:08;8.48;;;3.70;;
31836;SDS011;18401;49.344;6.240;2024-03-23T08:07:33;11.88;;;3.67;;
31836;SDS011;18401;49.344;6.240;2024-03-23T08:09:59;10.57;;;3.22;;
31836;SDS011;18401;49.344;6.240;2024-03-23T08:12:25;7.70;;;3.58;;
31836;SDS011;18401;49.344;6.240;2024-03-23T08:14:50;8.80;;;3.78;;
31836;SDS011;18401;49.344;6.240;2024-03-23T08:17:16;7.90;;;4.25;;
31836;SDS011;18401;49.344;6.240;2024-03-23T08:19:42;8.25;;;4.47;;
31836;SDS011;18401;49.344;6.240;2024-03-23T08:22:07;12.23;;;4.18;;
31836;SDS011;18401;49.344;6.240;2024-03-23T08:24:34;11.70;;;3.90;;
31836;SDS011;18401;49.344;6.240;2024-03-23T08:27:00;11.57;;;3.97;;
31836;SDS011;18401;49.344;6.240;2024-03-23T08:29:25;7.78;;;3.90;;
31836;SDS011;18401;49.344;6.240;2024-03-23T08:31:51;8.88;;;3.08;;
31836;SDS011;18401;49.344;6.240;2024-03-23T08:34:17;11.48;;;3.80;;
31836;SDS011;18401;49.344;6.240;2024-03-23T08:36:42;8.55;;;3.67;;
31836;SDS011;18401;49.344;6.240;2024-03-23T08:39:08;11.00;;;3.72;;
31836;SDS011;18401;49.344;6.240;2024-03-23T08:41:34;12.77;;;3.90;;
31836;SDS011;18401;49.344;6.240;2024-03-23T08:43:59;14.57;;;4.43;;
31836;SDS011;18401;49.344;6.240;2024-03-23T08:46:25;9.13;;;4.45;;
31836;SDS011;18401;49.344;6.240;2024-03-23T08:48:51;14.73;;;4.78;;
31836;SDS011;18401;49.344;6.240;2024-03-23T08:51:18;9.73;;;4.28;;
31836;SDS011;18401;49.344;6.240;2024-03-23T08:53:43;18.60;;;5.25;;
31836;SDS011;18401;49.344;6.240;2024-03-23T08:56:10;17.58;;;4.43;;
31836;SDS011;18401;49.344;6.240;2024-03-23T08:58:37;15.65;;;4.43;;
31836;SDS011;18401;49.344;6.240;2024-03-23T09:01:09;19.27;;;5.10;;
31836;SDS011;18401;49.344;6.240;2024-03-23T09:03:38;10.27;;;3.93;;
31836;SDS011;18401;49.344;6.240;2024-03-23T09:06:10;16.50;;;4.10;;
31836;SDS011;18401;49.344;6.240;2024-03-23T09:08:37;11.80;;;3.70;;
31836;SDS011;18401;49.344;6.240;2024-03-23T09:11:04;11.20;;;4.40;;
31836;SDS011;18401;49.344;6.240;2024-03-23T09:13:32;20.70;;;4.45;;
31836;SDS011;18401;49.344;6.240;2024-03-23T09:16:00;13.15;;;3.88;;
31836;SDS011;18401;49.344;6.240;2024-03-23T09:18:27;18.90;;;4.93;;
31836;SDS011;18401;49.344;6.240;2024-03-23T09:20:52;16.83;;;3.95;;
31836;SDS011;18401;49.344;6.240;2024-03-23T09:23:19;14.45;;;4.35;;
31836;SDS011;18401;49.344;6.240;2024-03-23T09:25:46;13.02;;;4.15;;
31836;SDS011;18401;49.344;6.240;2024-03-23T09:28:11;22.20;;;4.20;;
31836;SDS011;18401;49.344;6.240;2024-03-23T09:30:37;15.75;;;4.40;;
31836;SDS011;18401;49.344;6.240;2024-03-23T09:33:09;15.50;;;5.03;;
31836;SDS011;18401;49.344;6.240;2024-03-23T09:35:38;11.73;;;3.85;;
31836;SDS011;18401;49.344;6.240;2024-03-23T09:38:05;19.45;;;4.50;;
31836;SDS011;18401;49.344;6.240;2024-03-23T09:40:32;17.92;;;5.45;;
31836;SDS011;18401;49.344;6.240;2024-03-23T09:42:58;23.05;;;5.75;;
31836;SDS011;18401;49.344;6.240;2024-03-23T09:45:27;12.48;;;4.28;;
31836;SDS011;18401;49.344;6.240;2024-03-23T09:47:56;11.93;;;3.90;;
31836;SDS011;18401;49.344;6.240;2024-03-23T09:50:22;21.00;;;3.47;;
31836;SDS011;18401;49.344;6.240;2024-03-23T09:52:48;15.38;;;4.43;;
31836;SDS011;18401;49.344;6.240;2024-03-23T09:55:14;14.88;;;2.45;;
31836;SDS011;18401;49.344;6.240;2024-03-23T09:57:40;8.50;;;2.80;;
31836;SDS011;18401;49.344;6.240;2024-03-23T10:00:06;12.30;;;2.55;;
31836;SDS011;18401;49.344;6.240;2024-03-23T10:02:33;16.40;;;2.63;;
31836;SDS011;18401;49.344;6.240;2024-03-23T10:05:00;10.05;;;2.17;;
31836;SDS011;18401;49.344;6.240;2024-03-23T10:07:26;12.07;;;2.10;;
31836;SDS011;18401;49.344;6.240;2024-03-23T10:09:54;11.02;;;2.00;;
31836;SDS011;18401;49.344;6.240;2024-03-23T10:12:19;7.07;;;1.95;;
31836;SDS011;18401;49.344;6.240;2024-03-23T10:14:45;6.53;;;1.60;;
31836;SDS011;18401;49.344;6.240;2024-03-23T10:17:12;9.63;;;2.03;;
31836;SDS011;18401;49.344;6.240;2024-03-23T10:19:50;6.25;;;1.48;;
31836;SDS011;18401;49.344;6.240;2024-03-23T10:22:17;4.55;;;1.08;;
31836;SDS011;18401;49.344;6.240;2024-03-23T10:24:47;8.27;;;1.45;;
31836;SDS011;18401;49.344;6.240;2024-03-23T10:27:17;7.05;;;1.05;;
31836;SDS011;18401;49.344;6.240;2024-03-23T10:29:44;3.13;;;1.05;;
31836;SDS011;18401;49.344;6.240;2024-03-23T10:32:14;3.05;;;1.30;;
31836;SDS011;18401;49.344;6.240;2024-03-23T10:34:43;5.85;;;1.13;;
31836;SDS011;18401;49.344;6.240;2024-03-23T10:37:09;6.85;;;1.20;;
31836;SDS011;18401;49.344;6.240;2024-03-23T10:39:39;6.70;;;1.40;;
31836;SDS011;18401;49.344;6.240;2024-03-23T10:42:06;1.50;;;1.20;;
31836;SDS011;18401;49.344;6.240;2024-03-23T10:44:33;2.20;;;1.27;;
31836;SDS011;18401;49.344;6.240;2024-03-23T10:47:03;7.47;;;1.98;;
31836;SDS011;18401;49.344;6.240;2024-03-23T10:49:30;6.15;;;1.60;;
31836;SDS011;18401;49.344;6.240;2024-03-23T10:51:57;7.50;;;1.65;;
31836;SDS011;18401;49.344;6.240;2024-03-23T10:54:24;2.97;;;1.63;;
31836;SDS011;18401;49.344;6.240;2024-03-23T10:57:14;2.55;;;1.60;;
31836;SDS011;18401;49.344;6.240;2024-03-23T10:59:44;4.28;;;1.40;;
31836;SDS011;18401;49.344;6.240;2024-03-23T11:02:20;4.03;;;1.20;;
31836;SDS011;18401;49.344;6.240;2024-03-23T11:07:28;9.25;;;1.65;;
31836;SDS011;18401;49.344;6.240;2024-03-23T11:09:57;5.80;;;1.30;;
31836;SDS011;18401;49.344;6.240;2024-03-23T11:14:49;10.85;;;1.98;;
31836;SDS011;18401;49.344;6.240;2024-03-23T11:17:24;2.53;;;1.13;;
31836;SDS011;18401;49.344;6.240;2024-03-23T11:19:57;4.18;;;1.50;;
31836;SDS011;18401;49.344;6.240;2024-03-23T11:22:40;7.35;;;0.98;;
31836;SDS011;18401;49.344;6.240;2024-03-23T11:25:12;3.13;;;0.88;;
31836;SDS011;18401;49.344;6.240;2024-03-23T11:27:37;2.47;;;0.90;;
31836;SDS011;18401;49.344;6.240;2024-03-23T11:30:25;4.43;;;0.90;;
31836;SDS011;18401;49.344;6.240;2024-03-23T11:32:51;1.70;;;0.90;;
31836;SDS011;18401;49.344;6.240;2024-03-23T11:35:33;1.30;;;0.98;;
31836;SDS011;18401;49.344;6.240;2024-03-23T11:38:16;2.05;;;0.90;;
31836;SDS011;18401;49.344;6.240;2024-03-23T11:40:46;5.75;;;0.80;;
31836;SDS011;18401;49.344;6.240;2024-03-23T11:43:16;2.17;;;0.60;;
31836;SDS011;18401;49.344;6.240;2024-03-23T11:45:45;1.15;;;0.60;;
31836;SDS011;18401;49.344;6.240;2024-03-23T11:51:04;1.90;;;0.70;;
31836;SDS011;18401;49.344;6.240;2024-03-23T11:53:30;1.27;;;0.80;;
31836;SDS011;18401;49.344;6.240;2024-03-23T11:55:57;3.50;;;1.50;;
31836;SDS011;18401;49.344;6.240;2024-03-23T11:58:24;3.03;;;0.95;;
31836;SDS011;18401;49.344;6.240;2024-03-23T12:03:17;0.70;;;0.70;;
31836;SDS011;18401;49.344;6.240;2024-03-23T12:05:47;1.75;;;1.10;;
31836;SDS011;18401;49.344;6.240;2024-03-23T12:08:22;1.35;;;0.93;;
31836;SDS011;18401;49.344;6.240;2024-03-23T12:10:50;3.10;;;0.60;;
31836;SDS011;18401;49.344;6.240;2024-03-23T12:13:18;3.72;;;2.03;;
31836;SDS011;18401;49.344;6.240;2024-03-23T12:15:45;2.20;;;0.98;;
31836;SDS011;18401;49.344;6.240;2024-03-23T12:18:11;1.48;;;0.63;;
31836;SDS011;18401;49.344;6.240;2024-03-23T12:20:37;3.47;;;0.90;;
31836;SDS011;18401;49.344;6.240;2024-03-23T12:23:07;0.90;;;0.50;;
31836;SDS011;18401;49.344;6.240;2024-03-23T12:25:34;5.72;;;1.02;;
31836;SDS011;18401;49.344;6.240;2024-03-23T12:28:00;3.03;;;0.90;;
31836;SDS011;18401;49.344;6.240;2024-03-23T12:30:26;1.75;;;0.77;;
31836;SDS011;18401;49.344;6.240;2024-03-23T12:32:51;3.25;;;0.98;;
31836;SDS011;18401;49.344;6.240;2024-03-23T12:35:17;5.30;;;0.90;;
31836;SDS011;18401;49.344;6.240;2024-03-23T12:37:43;5.00;;;1.00;;
31836;SDS011;18401;49.344;6.240;2024-03-23T12:40:09;4.40;;;0.90;;
31836;SDS011;18401;49.344;6.240;2024-03-23T12:42:35;4.25;;;0.93;;
31836;SDS011;18401;49.344;6.240;2024-03-23T12:45:00;4.05;;;1.38;;
31836;SDS011;18401;49.344;6.240;2024-03-23T12:47:27;6.93;;;1.30;;
31836;SDS011;18401;49.344;6.240;2024-03-23T12:49:52;3.25;;;0.80;;
31836;SDS011;18401;49.344;6.240;2024-03-23T12:52:18;2.15;;;0.90;;
31836;SDS011;18401;49.344;6.240;2024-03-23T12:54:46;6.38;;;1.38;;
31836;SDS011;18401;49.344;6.240;2024-03-23T12:57:12;5.82;;;1.23;;
31836;SDS011;18401;49.344;6.240;2024-03-23T12:59:37;5.05;;;1.13;;
31836;SDS011;18401;49.344;6.240;2024-03-23T13:02:03;7.07;;;1.17;;
31836;SDS011;18401;49.344;6.240;2024-03-23T13:04:28;5.60;;;1.75;;
31836;SDS011;18401;49.344;6.240;2024-03-23T13:06:54;10.15;;;1.30;;
31836;SDS011;18401;49.344;6.240;2024-03-23T13:09:20;2.50;;;1.33;;
31836;SDS011;18401;49.344;6.240;2024-03-23T13:11:46;7.45;;;1.20;;
31836;SDS011;18401;49.344;6.240;2024-03-23T13:14:11;4.68;;;1.10;;
31836;SDS011;18401;49.344;6.240;2024-03-23T13:16:39;1.20;;;0.85;;
31836;SDS011;18401;49.344;6.240;2024-03-23T13:19:05;1.42;;;0.90;;
31836;SDS011;18401;49.344;6.240;2024-03-23T13:21:30;1.95;;;1.08;;
31836;SDS011;18401;49.344;6.240;2024-03-23T13:23:56;2.17;;;1.10;;
31836;SDS011;18401;49.344;6.240;2024-03-23T13:26:22;0.82;;;0.80;;
31836;SDS011;18401;49.344;6.240;2024-03-23T13:28:48;1.00;;;0.90;;
31836;SDS011;18401;49.344;6.240;2024-03-23T13:31:13;0.70;;;0.70;;
31836;SDS011;18401;49.344;6.240;2024-03-23T13:33:39;2.35;;;0.75;;
31836;SDS011;18401;49.344;6.240;2024-03-23T13:36:07;0.73;;;0.70;;
31836;SDS011;18401;49.344;6.240;2024-03-23T13:38:33;1.65;;;0.70;;
31836;SDS011;18401;49.344;6.240;2024-03-23T13:40:59;5.70;;;1.10;;
31836;SDS011;18401;49.344;6.240;2024-03-23T13:43:26;1.35;;;1.08;;
31836;SDS011;18401;49.344;6.240;2024-03-23T13:45:56;4.78;;;2.10;;
31836;SDS011;18401;49.344;6.240;2024-03-23T13:48:23;3.00;;;1.00;;
31836;SDS011;18401;49.344;6.240;2024-03-23T13:50:59;1.58;;;0.90;;
31836;SDS011;18401;49.344;6.240;2024-03-23T13:53:26;2.33;;;0.60;;
31836;SDS011;18401;49.344;6.240;2024-03-23T13:55:51;3.10;;;1.00;;
31836;SDS011;18401;49.344;6.240;2024-03-23T13:58:17;4.43;;;0.77;;
31836;SDS011;18401;49.344;6.240;2024-03-23T14:00:43;4.50;;;0.80;;
31836;SDS011;18401;49.344;6.240;2024-03-23T14:03:09;2.88;;;0.60;;
31836;SDS011;18401;49.344;6.240;2024-03-23T14:05:36;2.47;;;0.60;;
31836;SDS011;18401;49.344;6.240;2024-03-23T14:08:03;3.00;;;0.80;;
31836;SDS011;18401;49.344;6.240;2024-03-23T14:10:33;2.90;;;0.63;;
31836;SDS011;18401;49.344;6.240;2024-03-23T14:12:58;3.53;;;0.60;;
31836;SDS011;18401;49.344;6.240;2024-03-23T14:15:28;0.40;;;0.40;;
31836;SDS011;18401;49.344;6.240;2024-03-23T14:17:54;2.88;;;0.60;;
31836;SDS011;18401;49.344;6.240;2024-03-23T14:20:20;2.83;;;0.75;;
31836;SDS011;18401;49.344;6.240;2024-03-23T14:22:46;3.63;;;0.70;;
31836;SDS011;18401;49.344;6.240;2024-03-23T14:25:12;3.22;;;0.73;;
31836;SDS011;18401;49.344;6.240;2024-03-23T14:27:38;4.43;;;2.05;;
31836;SDS011;18401;49.344;6.240;2024-03-23T14:30:04;5.10;;;2.45;;
31836;SDS011;18401;49.344;6.240;2024-03-23T14:32:30;1.25;;;0.70;;
31836;SDS011;18401;49.344;6.240;2024-03-23T14:34:59;5.10;;;0.95;;
31836;SDS011;18401;49.344;6.240;2024-03-23T14:37:28;1.77;;;1.05;;
31836;SDS011;18401;49.344;6.240;2024-03-23T14:39:57;2.35;;;1.13;;
31836;SDS011;18401;49.344;6.240;2024-03-23T14:42:23;4.60;;;0.98;;
31836;SDS011;18401;49.344;6.240;2024-03-23T14:44:49;2.70;;;1.15;;
31836;SDS011;18401;49.344;6.240;2024-03-23T14:47:16;0.70;;;0.70;;
31836;SDS011;18401;49.344;6.240;2024-03-23T14:49:42;2.92;;;1.00;;
31836;SDS011;18401;49.344;6.240;2024-03-23T14:52:16;2.55;;;0.70;;
31836;SDS011;18401;49.344;6.240;2024-03-23T14:54:43;0.80;;;0.80;;
31836;SDS011;18401;49.344;6.240;2024-03-23T14:57:09;2.67;;;1.17;;
31836;SDS011;18401;49.344;6.240;2024-03-23T14:59:35;1.35;;;1.17;;
31836;SDS011;18401;49.344;6.240;2024-03-23T15:02:03;7.63;;;1.20;;
31836;SDS011;18401;49.344;6.240;2024-03-23T15:04:29;4.43;;;1.42;;
31836;SDS011;18401;49.344;6.240;2024-03-23T15:06:55;3.85;;;1.42;;
31836;SDS011;18401;49.344;6.240;2024-03-23T15:09:20;3.80;;;1.30;;
31836;SDS011;18401;49.344;6.240;2024-03-23T15:11:46;2.28;;;1.00;;
31836;SDS011;18401;49.344;6.240;2024-03-23T15:14:11;7.00;;;1.17;;
31836;SDS011;18401;49.344;6.240;2024-03-23T15:16:37;1.42;;;0.80;;
31836;SDS011;18401;49.344;6.240;2024-03-23T15:19:03;2.45;;;0.90;;
31836;SDS011;18401;49.344;6.240;2024-03-23T15:21:31;2.70;;;1.20;;
31836;SDS011;18401;49.344;6.240;2024-03-23T15:23:57;2.90;;;1.20;;
31836;SDS011;18401;49.344;6.240;2024-03-23T15:26:22;2.47;;;1.00;;
31836;SDS011;18401;49.344;6.240;2024-03-23T15:28:48;1.50;;;0.98;;
31836;SDS011;18401;49.344;6.240;2024-03-23T15:31:23;1.88;;;1.08;;
31836;SDS011;18401;49.344;6.240;2024-03-23T15:33:50;1.00;;;0.75;;
31836;SDS011;18401;49.344;6.240;2024-03-23T15:36:15;0.80;;;0.73;;
31836;SDS011;18401;49.344;6.240;2024-03-23T15:38:42;3.38;;;1.00;;
31836;SDS011;18401;49.344;6.240;2024-03-23T15:41:08;2.85;;;0.90;;
31836;SDS011;18401;49.344;6.240;2024-03-23T15:43:34;1.65;;;1.05;;
31836;SDS011;18401;49.344;6.240;2024-03-23T15:46:00;1.77;;;0.90;;